»·PEaware :: UAL189 KMFR-KSFO

UAL189 :: KMFR-KSFO

FLIGHT INFORMATION

Flight Status: Arrived
Operator:
United Airlines
More flights by this operator :: More flights under this callsign
Pilot: Patricio R. (14780)
Aircraft: BOEING 737-200
(B732)
More flights by this aircraft type
Origin: KMFR Rogue Valley Intl-Medford
United States
Destination: KSFO San Francisco Intl
United States
More flights between these airports :: More routes between these airports
Route: OED ENI PYE GOLDN7
File this flight plan on PilotEdge
Remarks:
Altitude:
(Current/Filed)
29,000ft
Speed:
(Current/Filed)
435kts
Departed: 13-Jan-18 01:58 PM
Arrived: 13-Jan-18 03:01 PM
Distance/Time
Traveled:
286nm/1:03
Distance/Time
To Go:
Arrived

Flight Plot

Page will automatically refresh every two minutes.

Flight plan parsing failed; only flown route is shown


Map Options




Map Legend


Flown Route
Filed Route
Departure Airport
Arrival Airport
Navaid (VOR, NDB)
Fix

Horizontal Profiles

Position Reports

Time Latitude Longitude Heading Altitude Ground
Speed
13-Jan-18 13:41 42.365562 -122.870960 249 1323ft 0kts
13-Jan-18 13:42 42.365562 -122.870960 249 1323ft 0kts
13-Jan-18 13:43 42.365562 -122.870960 249 1323ft 0kts
13-Jan-18 13:44 42.365562 -122.870960 249 1323ft 0kts
13-Jan-18 13:45 42.365562 -122.870960 249 1323ft 0kts
13-Jan-18 13:46 42.365562 -122.870960 249 1323ft 0kts
13-Jan-18 13:47 42.365562 -122.870960 249 1323ft 0kts
13-Jan-18 13:48 42.365562 -122.870960 249 1323ft 0kts
13-Jan-18 13:49 42.365562 -122.870960 249 1323ft 0kts
13-Jan-18 13:50 42.365562 -122.870960 249 1323ft 0kts
13-Jan-18 13:51 42.365562 -122.870960 249 1323ft 0kts
13-Jan-18 13:52 42.365562 -122.870960 249 1323ft 0kts
13-Jan-18 13:53 42.365562 -122.870960 249 1323ft 0kts
13-Jan-18 13:54 42.365562 -122.870960 249 1323ft 0kts
13-Jan-18 13:55 42.365562 -122.870960 249 1323ft 0kts
13-Jan-18 13:56 42.365562 -122.870960 249 1323ft 0kts
13-Jan-18 13:57 42.365558 -122.871030 280 1323ft 0kts
13-Jan-18 13:58 42.365946 -122.870950 67 1323ft 0kts
13-Jan-18 13:59 42.365946 -122.870950 67 1323ft 0kts
13-Jan-18 14:00 42.365950 -122.870936 67 1323ft 0kts
13-Jan-18 14:01 42.365449 -122.869867 158 1323ft 8kts
13-Jan-18 14:02 42.363688 -122.868874 136 1323ft 0kts
13-Jan-18 14:03 42.364109 -122.867600 339 1323ft 0kts
13-Jan-18 14:04 42.384155 -122.878216 337 1652ft 170kts
13-Jan-18 14:05 42.430802 -122.901536 342 4526ft 186kts
13-Jan-18 14:06 42.485870 -122.914470 344 6573ft 211kts
13-Jan-18 14:07 42.512115 -122.983238 284 8611ft 229kts
13-Jan-18 14:08 42.475941 -123.043063 194 10516ft 246kts
13-Jan-18 14:09 42.406075 -123.069324 194 12486ft 272kts
13-Jan-18 14:10 42.332095 -123.096120 194 14657ft 280kts
13-Jan-18 14:11 42.253170 -123.124080 194 16107ft 308kts
13-Jan-18 14:12 42.168495 -123.153597 194 17736ft 321kts
13-Jan-18 14:13 42.095410 -123.178754 194 18926ft 333kts
13-Jan-18 14:14 42.004400 -123.209735 194 20228ft 344kts
13-Jan-18 14:15 41.910062 -123.245323 198 21099ft 364kts
13-Jan-18 14:16 41.823118 -123.313837 219 21858ft 379kts
13-Jan-18 14:17 41.723142 -123.359044 194 22760ft 386kts
13-Jan-18 14:18 41.617548 -123.350374 170 23638ft 393kts
13-Jan-18 14:19 41.509156 -123.334893 178 24722ft 388kts
13-Jan-18 14:20 41.401635 -123.329765 180 25483ft 391kts
13-Jan-18 14:21 41.292520 -123.326611 180 26186ft 394kts
13-Jan-18 14:22 41.182682 -123.323857 180 26759ft 398kts
13-Jan-18 14:23 41.071644 -123.321151 180 27270ft 401kts
13-Jan-18 14:24 40.959904 -123.318451 181 27710ft 405kts
13-Jan-18 14:25 40.851477 -123.315870 181 28122ft 408kts
13-Jan-18 14:26 40.738252 -123.313218 181 28524ft 411kts
13-Jan-18 14:27 40.623642 -123.310487 181 28875ft 413kts
13-Jan-18 14:28 40.508698 -123.307761 181 29195ft 415kts
13-Jan-18 14:29 40.392162 -123.305032 181 29218ft 424kts
13-Jan-18 14:30 40.273750 -123.302250 181 29219ft 431kts
13-Jan-18 14:31 40.153405 -123.299429 181 29226ft 436kts
13-Jan-18 14:32 40.033336 -123.296560 181 29230ft 429kts
13-Jan-18 14:33 39.914941 -123.293678 181 29233ft 425kts
13-Jan-18 14:34 39.802376 -123.291166 181 29238ft 426kts
13-Jan-18 14:35 39.689268 -123.288687 181 29237ft 426kts
13-Jan-18 14:36 39.570967 -123.285980 181 29237ft 427kts
13-Jan-18 14:37 39.452737 -123.283259 181 29237ft 427kts
13-Jan-18 14:38 39.333923 -123.280542 181 29236ft 427kts
13-Jan-18 14:39 39.215427 -123.277852 181 29236ft 427kts
13-Jan-18 14:40 39.096951 -123.275182 181 29235ft 427kts
13-Jan-18 14:41 38.980391 -123.255882 151 29248ft 436kts
13-Jan-18 14:42 38.890568 -123.186188 159 29234ft 434kts
13-Jan-18 14:43 38.777708 -123.148417 189 29259ft 423kts
13-Jan-18 14:44 38.659863 -123.151751 171 29230ft 429kts
13-Jan-18 14:45 38.554123 -123.089882 134 28020ft 433kts
13-Jan-18 14:46 38.469521 -122.982851 156 26741ft 424kts
13-Jan-18 14:47 38.356472 -122.967973 173 25291ft 409kts
13-Jan-18 14:48 38.247166 -122.934602 164 22570ft 396kts
13-Jan-18 14:49 38.145234 -122.894415 161 18810ft 375kts
13-Jan-18 14:50 38.051853 -122.849500 138 15295ft 350kts
13-Jan-18 14:51 37.984478 -122.766187 136 12372ft 335kts
13-Jan-18 14:52 37.916487 -122.690563 138 11038ft 311kts
13-Jan-18 14:53 37.855638 -122.625173 138 11012ft 291kts
13-Jan-18 14:54 37.793579 -122.558925 138 10987ft 294kts
13-Jan-18 14:55 37.731496 -122.492807 138 10987ft 295kts
13-Jan-18 14:56 37.671408 -122.429002 138 10381ft 287kts
13-Jan-18 14:57 37.610569 -122.365292 146 9252ft 282kts
13-Jan-18 14:58 37.540207 -122.322622 153 7985ft 280kts
13-Jan-18 14:59 37.470718 -122.282070 154 7007ft 265kts
13-Jan-18 15:00 37.406166 -122.243842 143 6011ft 254kts
13-Jan-18 15:01 37.406943 -122.170157 40 4814ft 238kts
13-Jan-18 15:02 37.468272 -122.173746 343 4008ft 219kts
13-Jan-18 15:03 37.528168 -122.197832 337 2998ft 226kts
13-Jan-18 15:04 37.563316 -122.256365 306 2497ft 207kts
13-Jan-18 15:05 37.593501 -122.315240 302 1049ft 187kts
13-Jan-18 15:06 37.613674 -122.363008 298 21ft 134kts
13-Jan-18 15:07 37.619180 -122.380874 291 20ft 15kts
13-Jan-18 15:08 37.619048 -122.383103 294 21ft 2kts
13-Jan-18 15:09 37.619196 -122.383571 289 20ft 0kts
13-Jan-18 15:10 37.619196 -122.383571 289 20ft 0kts

Navigation Log

Ident Type
Flight plan parsing failed, navigation log unavailable